Time;durP1;ratioP1;P1;durP2;ratioP2;P2;SDS_P1;SDS_P2;PMS_P1;PMS_P2;Temp;Humidity;BMP_temperature;BMP_pressure;BME280_temperature;BME280_humidity;BME280_pressure;Samples;Min_cycle;Max_cycle;Signal;HPM_P1;HPM_P2
2022/06/13 00:00:07;;;;;;;6.30;4.60;;;;;;;;;;5013071;28;20034;-77
2022/06/13 00:02:34;;;;;;;5.90;4.15;;;;;;;;;;5013696;28;20391;-77
2022/06/13 00:05:01;;;;;;;5.47;4.43;;;;;;;;;;5013624;28;20036;-77
2022/06/13 00:07:27;;;;;;;7.95;4.70;;;;;;;;;;5014143;28;20022;-75
2022/06/13 00:09:53;;;;;;;6.03;4.45;;;;;;;;;;5013373;28;20029;-78
2022/06/13 00:12:20;;;;;;;6.05;4.28;;;;;;;;;;5014996;28;20045;-79
2022/06/13 00:14:46;;;;;;;6.22;4.28;;;;;;;;;;5013308;28;20022;-74
2022/06/13 00:17:12;;;;;;;5.05;4.10;;;;;;;;;;5013136;28;20543;-73
2022/06/13 00:19:38;;;;;;;7.55;4.25;;;;;;;;;;5014895;28;20041;-77
2022/06/13 00:22:05;;;;;;;5.13;4.22;;;;;;;;;;5013358;28;20033;-77
2022/06/13 00:24:41;;;;;;;6.78;4.60;;;;;;;;;;5016103;28;20076;-76
2022/06/13 00:27:07;;;;;;;6.47;4.90;;;;;;;;;;5010308;28;20026;-79
2022/06/13 00:29:33;;;;;;;7.53;4.47;;;;;;;;;;4995465;28;20446;-72
2022/06/13 00:31:59;;;;;;;7.28;4.68;;;;;;;;;;5012655;28;20045;-80
2022/06/13 00:34:25;;;;;;;5.55;4.30;;;;;;;;;;5012796;28;20041;-72
2022/06/13 00:36:51;;;;;;;7.35;4.75;;;;;;;;;;5016165;28;20052;-80
2022/06/13 00:39:17;;;;;;;7.57;4.65;;;;;;;;;;5013187;28;20046;-78
2022/06/13 00:41:45;;;;;;;10.73;4.63;;;;;;;;;;4998628;28;20046;-79
2022/06/13 00:44:31;;;;;;;10.32;4.57;;;;;;;;;;4997696;28;20037;-78
2022/06/13 00:46:57;;;;;;;8.15;4.72;;;;;;;;;;5001945;28;20029;-77
2022/06/13 00:49:29;;;;;;;6.30;4.45;;;;;;;;;;4995301;28;20033;-73
2022/06/13 00:52:09;;;;;;;7.93;4.60;;;;;;;;;;5022742;28;20045;-77
2022/06/13 00:54:37;;;;;;;6.63;4.47;;;;;;;;;;4997513;28;20029;-75
2022/06/13 00:57:05;;;;;;;7.25;4.65;;;;;;;;;;5012466;28;20028;-76
2022/06/13 00:59:33;;;;;;;8.43;4.47;;;;;;;;;;5012602;28;20133;-77
2022/06/13 01:01:59;;;;;;;6.97;4.32;;;;;;;;;;5012409;28;20034;-77
2022/06/13 01:04:26;;;;;;;6.85;4.90;;;;;;;;;;5012692;28;20018;-80
2022/06/13 01:06:52;;;;;;;5.72;4.47;;;;;;;;;;5016253;28;20455;-76
2022/06/13 01:11:16;;;;;;;7.25;4.88;;;;;;;;;;5015131;28;20030;-72
2022/06/13 01:12:07;;;;;;;6.85;4.85;;;;;;;;;;5012261;28;20041;-72
2022/06/13 01:14:58;;;;;;;6.18;4.50;;;;;;;;;;5014754;28;20030;-76
2022/06/13 01:17:48;;;;;;;7.72;4.50;;;;;;;;;;5014031;28;20070;-76
2022/06/13 01:20:50;;;;;;;5.10;4.40;;;;;;;;;;5010636;28;20034;-75
2022/06/13 01:23:34;;;;;;;5.60;4.50;;;;;;;;;;4934358;29;20110;-75
2022/06/13 01:26:19;;;;;;;5.38;4.35;;;;;;;;;;4936183;29;20122;-78
2022/06/13 01:28:51;;;;;;;6.03;4.68;;;;;;;;;;4928467;29;20028;-72
2022/06/13 01:31:22;;;;;;;6.63;4.82;;;;;;;;;;4933754;29;20397;-71
2022/06/13 01:34:00;;;;;;;7.15;4.50;;;;;;;;;;4934056;29;20062;-74
2022/06/13 01:36:50;;;;;;;6.97;5.00;;;;;;;;;;4945458;29;20035;-75
2022/06/13 01:39:39;;;;;;;5.88;4.30;;;;;;;;;;4931442;29;20127;-72
2022/06/13 01:42:11;;;;;;;5.90;4.20;;;;;;;;;;4947686;29;20036;-75
2022/06/13 01:44:46;;;;;;;5.78;4.60;;;;;;;;;;4932513;29;20028;-73
2022/06/13 01:50:18;;;;;;;6.97;4.65;;;;;;;;;;4874981;29;20073;-74
2022/06/13 01:52:50;;;;;;;7.03;4.70;;;;;;;;;;4859020;29;20056;-74
2022/06/13 01:55:25;;;;;;;6.63;4.45;;;;;;;;;;4859163;29;20044;-75
2022/06/13 01:57:54;;;;;;;6.50;4.70;;;;;;;;;;4868945;29;20172;-72
2022/06/13 02:00:25;;;;;;;5.93;5.15;;;;;;;;;;4905597;29;20471;-74
2022/06/13 02:03:04;;;;;;;8.95;4.50;;;;;;;;;;4916135;29;20032;-72
2022/06/13 02:05:31;;;;;;;6.13;4.35;;;;;;;;;;4914269;29;20506;-76
2022/06/13 02:07:58;;;;;;;6.65;4.70;;;;;;;;;;4918509;29;20133;-76
2022/06/13 02:10:30;;;;;;;5.63;4.50;;;;;;;;;;4917616;29;20032;-74
2022/06/13 02:13:08;;;;;;;6.05;4.60;;;;;;;;;;4918608;29;20054;-76
2022/06/13 02:15:36;;;;;;;7.57;5.13;;;;;;;;;;4900869;29;20161;-74
2022/06/13 02:18:23;;;;;;;10.18;4.75;;;;;;;;;;4922649;29;20156;-72
2022/06/13 02:20:51;;;;;;;8.48;4.57;;;;;;;;;;4924715;29;20159;-74
2022/06/13 02:23:20;;;;;;;4.72;4.22;;;;;;;;;;4916763;29;20039;-72
2022/06/13 02:25:50;;;;;;;6.50;4.40;;;;;;;;;;4917388;29;20032;-75
2022/06/13 02:28:21;;;;;;;7.38;4.85;;;;;;;;;;5005981;28;20513;-72
2022/06/13 02:31:05;;;;;;;6.40;4.70;;;;;;;;;;5015154;28;20113;-73
2022/06/13 02:33:34;;;;;;;6.13;4.70;;;;;;;;;;5014990;28;20052;-75
2022/06/13 02:36:05;;;;;;;7.82;4.50;;;;;;;;;;5015124;28;20513;-73
2022/06/13 02:38:40;;;;;;;7.20;4.78;;;;;;;;;;5019862;28;20066;-72
2022/06/13 02:41:11;;;;;;;7.38;4.50;;;;;;;;;;5017721;28;20121;-75
2022/06/13 02:43:42;;;;;;;7.30;4.72;;;;;;;;;;5002000;28;20022;-75
2022/06/13 02:46:16;;;;;;;6.60;4.90;;;;;;;;;;5015222;28;20029;-73
2022/06/13 02:49:00;;;;;;;5.72;4.60;;;;;;;;;;5020646;28;20037;-75
2022/06/13 02:51:45;;;;;;;9.43;4.32;;;;;;;;;;5016480;28;20036;-75
2022/06/13 02:54:17;;;;;;;7.28;4.47;;;;;;;;;;5011964;28;20033;-75
2022/06/13 03:00:03;;;;;;;5.03;4.35;;;;;;;;;;5015126;28;20085;-75
2022/06/13 03:02:44;;;;;;;5.70;4.40;;;;;;;;;;5014843;28;20391;-75
2022/06/13 03:06:00;;;;;;;7.80;4.93;;;;;;;;;;5016963;28;20018;-77
2022/06/13 03:08:33;;;;;;;7.93;4.43;;;;;;;;;;4904256;28;20036;-75
2022/06/13 03:11:05;;;;;;;8.68;5.32;;;;;;;;;;4916463;29;20028;-75
2022/06/13 03:13:37;;;;;;;9.82;4.72;;;;;;;;;;4916677;29;20044;-75
2022/06/13 03:16:22;;;;;;;7.05;4.40;;;;;;;;;;4924512;29;20460;-77
2022/06/13 03:18:49;;;;;;;9.15;4.45;;;;;;;;;;4914121;29;20040;-76
2022/06/13 03:21:32;;;;;;;6.22;4.60;;;;;;;;;;4915203;29;20024;-74
2022/06/13 03:24:05;;;;;;;8.33;4.87;;;;;;;;;;4915806;29;20115;-73
2022/06/13 03:26:42;;;;;;;6.28;4.65;;;;;;;;;;4917316;29;20131;-75
2022/06/13 03:29:14;;;;;;;7.82;4.88;;;;;;;;;;4902957;29;20574;-74
2022/06/13 03:31:49;;;;;;;8.35;4.47;;;;;;;;;;4915865;29;20032;-75
2022/06/13 03:34:24;;;;;;;6.95;4.68;;;;;;;;;;4905017;29;20040;-75
2022/06/13 03:36:56;;;;;;;8.32;4.70;;;;;;;;;;4900148;29;20036;-76
2022/06/13 03:39:24;;;;;;;7.88;4.68;;;;;;;;;;4893948;29;20053;-72
2022/06/13 03:41:54;;;;;;;7.63;4.78;;;;;;;;;;4896773;29;20035;-74
2022/06/13 03:44:30;;;;;;;5.90;4.65;;;;;;;;;;4923931;28;20079;-73
2022/06/13 03:46:58;;;;;;;7.05;4.75;;;;;;;;;;4954708;28;20039;-74
2022/06/13 03:49:26;;;;;;;8.05;4.57;;;;;;;;;;4966845;28;20440;-72
2022/06/13 03:51:54;;;;;;;10.23;5.45;;;;;;;;;;4953891;28;20042;-75
2022/06/13 03:54:27;;;;;;;12.00;6.30;;;;;;;;;;4953592;28;20050;-74
2022/06/13 03:57:13;;;;;;;14.75;5.43;;;;;;;;;;4975229;28;20042;-77
2022/06/13 03:59:48;;;;;;;14.55;6.50;;;;;;;;;;4962986;28;20034;-74
2022/06/13 04:02:16;;;;;;;6.85;5.00;;;;;;;;;;5007196;28;20116;-74
2022/06/13 04:04:50;;;;;;;9.05;5.65;;;;;;;;;;5018085;28;20022;-75
2022/06/13 04:07:34;;;;;;;9.70;5.03;;;;;;;;;;5012384;28;20038;-75
2022/06/13 04:10:03;;;;;;;5.18;4.22;;;;;;;;;;5018664;28;20092;-75
2022/06/13 04:13:01;;;;;;;6.70;4.40;;;;;;;;;;5013851;28;20030;-76
2022/06/13 04:15:46;;;;;;;7.00;4.30;;;;;;;;;;4913839;29;20055;-76
2022/06/13 04:18:34;;;;;;;12.65;4.88;;;;;;;;;;4914599;29;20040;-72
2022/06/13 04:21:19;;;;;;;9.98;5.45;;;;;;;;;;4913795;29;20088;-72
2022/06/13 04:24:20;;;;;;;9.77;4.88;;;;;;;;;;4915186;29;20032;-74
2022/06/13 04:26:52;;;;;;;8.10;4.53;;;;;;;;;;4846741;29;20022;-75
2022/06/13 04:29:23;;;;;;;8.45;4.40;;;;;;;;;;4836968;29;20088;-75
2022/06/13 04:31:51;;;;;;;7.97;4.50;;;;;;;;;;4858569;29;20053;-76
2022/06/13 04:34:20;;;;;;;12.07;4.88;;;;;;;;;;4853124;29;20508;-75
2022/06/13 04:36:59;;;;;;;10.05;4.97;;;;;;;;;;5339051;23;20012;31
2022/06/13 04:39:26;;;;;;;7.78;4.70;;;;;;;;;;4987411;28;20054;-77
2022/06/13 04:41:54;;;;;;;7.25;4.72;;;;;;;;;;4993175;28;20023;-78
2022/06/13 04:44:23;;;;;;;11.40;4.88;;;;;;;;;;4991256;28;20387;-78
2022/06/13 04:46:49;;;;;;;10.25;4.53;;;;;;;;;;4992983;28;20114;-77
2022/06/13 04:49:21;;;;;;;10.43;4.68;;;;;;;;;;4990692;28;20027;-76
2022/06/13 04:51:48;;;;;;;6.18;4.65;;;;;;;;;;4992658;28;20049;-77
2022/06/13 04:54:33;;;;;;;6.18;4.68;;;;;;;;;;4991835;28;20026;-77
2022/06/13 04:57:00;;;;;;;11.38;4.07;;;;;;;;;;4984115;28;20030;-76
2022/06/13 04:59:26;;;;;;;6.30;4.32;;;;;;;;;;4989420;28;20031;-78
2022/06/13 05:01:52;;;;;;;7.20;4.00;;;;;;;;;;4991201;28;20163;-76
2022/06/13 05:04:20;;;;;;;7.55;4.10;;;;;;;;;;4991281;28;20113;-77
2022/06/13 05:06:46;;;;;;;8.65;4.13;;;;;;;;;;4992834;28;20022;-78
2022/06/13 05:09:12;;;;;;;8.05;4.50;;;;;;;;;;4990370;28;20129;-79
2022/06/13 05:11:51;;;;;;;5.88;4.00;;;;;;;;;;4990354;28;20073;-79
2022/06/13 05:14:23;;;;;;;9.38;4.53;;;;;;;;;;4991480;28;20081;-76
2022/06/13 05:16:52;;;;;;;8.50;3.97;;;;;;;;;;4990136;28;20033;-74
2022/06/13 05:19:27;;;;;;;5.72;4.03;;;;;;;;;;4992739;28;20069;-73
2022/06/13 05:21:53;;;;;;;6.07;3.75;;;;;;;;;;4991796;28;20026;-73
2022/06/13 05:24:40;;;;;;;6.07;3.40;;;;;;;;;;4992704;28;20141;-75
2022/06/13 05:27:08;;;;;;;6.45;3.60;;;;;;;;;;4991034;28;20030;-73
2022/06/13 05:29:34;;;;;;;9.20;3.55;;;;;;;;;;4992440;28;20027;-74
2022/06/13 05:32:01;;;;;;;5.45;3.67;;;;;;;;;;4991681;28;20030;-75
2022/06/13 05:34:31;;;;;;;4.40;3.30;;;;;;;;;;4990458;28;20489;-75
2022/06/13 05:36:57;;;;;;;10.95;4.30;;;;;;;;;;4989023;28;20042;-82
2022/06/13 05:39:23;;;;;;;12.10;3.63;;;;;;;;;;4984806;28;20464;-81
2022/06/13 05:41:49;;;;;;;8.32;3.60;;;;;;;;;;5011903;28;20387;-79
2022/06/13 05:44:16;;;;;;;11.35;3.30;;;;;;;;;;5014890;28;20084;-74
2022/06/13 05:46:42;;;;;;;10.23;3.72;;;;;;;;;;5014591;28;20022;-74
2022/06/13 05:49:12;;;;;;;12.80;4.10;;;;;;;;;;5014672;28;20026;-74
2022/06/13 05:51:38;;;;;;;9.93;3.63;;;;;;;;;;5015409;28;20046;-74
2022/06/13 05:54:04;;;;;;;6.60;3.10;;;;;;;;;;5011933;28;20104;-74
2022/06/13 05:56:31;;;;;;;14.75;4.65;;;;;;;;;;5022326;28;20026;-75
2022/06/13 05:58:57;;;;;;;14.80;5.97;;;;;;;;;;5015786;28;20403;-76
2022/06/13 06:01:23;;;;;;;6.03;3.40;;;;;;;;;;5013647;28;20105;-74
2022/06/13 06:03:50;;;;;;;9.85;3.80;;;;;;;;;;5015051;28;20431;-74
2022/06/13 06:06:26;;;;;;;9.57;3.90;;;;;;;;;;5015255;28;20030;-74
2022/06/13 06:08:56;;;;;;;9.32;3.85;;;;;;;;;;5009708;28;20037;-76
2022/06/13 06:11:22;;;;;;;14.98;4.10;;;;;;;;;;5015421;28;20026;-78
2022/06/13 06:13:48;;;;;;;12.43;3.88;;;;;;;;;;5014393;28;20089;-79
2022/06/13 06:16:16;;;;;;;6.85;3.50;;;;;;;;;;5015816;28;20030;-77
2022/06/13 06:18:42;;;;;;;8.60;3.60;;;;;;;;;;5014859;28;20030;-75
2022/06/13 06:21:08;;;;;;;13.45;4.03;;;;;;;;;;5010846;28;20030;-86
2022/06/13 06:23:35;;;;;;;9.55;3.53;;;;;;;;;;5014203;28;20033;-78
2022/06/13 06:26:02;;;;;;;5.85;2.97;;;;;;;;;;5015387;28;20484;-76
2022/06/13 06:28:29;;;;;;;8.02;3.40;;;;;;;;;;5014246;28;21011;-79
2022/06/13 06:30:56;;;;;;;6.75;3.47;;;;;;;;;;5015085;28;20104;-81
2022/06/13 06:33:23;;;;;;;10.07;3.92;;;;;;;;;;5013028;28;20103;-80
2022/06/13 06:35:50;;;;;;;11.65;3.47;;;;;;;;;;5014006;28;20025;-86
2022/06/13 06:38:17;;;;;;;27.13;20.50;;;;;;;;;;5009437;28;20108;-76
2022/06/13 06:40:43;;;;;;;17.45;11.07;;;;;;;;;;5014749;28;20044;-74
2022/06/13 06:43:09;;;;;;;8.18;3.65;;;;;;;;;;5012480;28;20033;-74
2022/06/13 06:45:36;;;;;;;11.30;3.92;;;;;;;;;;5013240;28;20014;-73
2022/06/13 06:48:02;;;;;;;7.22;3.70;;;;;;;;;;5013006;28;20038;-74
2022/06/13 06:50:33;;;;;;;8.07;3.70;;;;;;;;;;5014342;28;20204;-74
2022/06/13 06:53:00;;;;;;;7.82;3.50;;;;;;;;;;5014496;28;20483;-74
2022/06/13 07:00:57;;;;;;;8.63;3.83;;;;;;;;;;5005371;28;20464;-73
2022/06/13 07:03:23;;;;;;;10.10;4.03;;;;;;;;;;5013044;28;21858;-83
2022/06/13 07:05:51;;;;;;;11.20;4.30;;;;;;;;;;5009319;28;20038;-78
2022/06/13 07:08:17;;;;;;;10.90;3.80;;;;;;;;;;4992527;28;20070;-78
2022/06/13 07:10:48;;;;;;;6.78;4.10;;;;;;;;;;5005571;28;20041;-75
2022/06/13 07:13:15;;;;;;;8.23;3.83;;;;;;;;;;5013442;28;20041;-76
2022/06/13 07:15:41;;;;;;;7.85;4.20;;;;;;;;;;5008922;28;20025;-75
2022/06/13 07:18:08;;;;;;;8.68;4.32;;;;;;;;;;5013532;28;20026;-77
2022/06/13 07:20:35;;;;;;;8.90;4.43;;;;;;;;;;5012425;28;20026;-75
2022/06/13 07:23:01;;;;;;;17.00;4.00;;;;;;;;;;5014082;28;20108;-78
2022/06/13 07:25:29;;;;;;;6.15;3.75;;;;;;;;;;5013851;28;20479;-74
2022/06/13 07:27:55;;;;;;;10.63;4.05;;;;;;;;;;5014041;28;20488;-74
2022/06/13 07:30:23;;;;;;;5.80;3.97;;;;;;;;;;5013497;28;20021;-73
2022/06/13 07:32:50;;;;;;;6.63;3.80;;;;;;;;;;5014084;28;20400;-76
2022/06/13 07:35:18;;;;;;;6.93;3.35;;;;;;;;;;5011761;28;20046;-78
2022/06/13 07:40:30;;;;;;;10.07;3.88;;;;;;;;;;4972922;28;20143;-80
2022/06/13 07:43:00;;;;;;;6.95;3.97;;;;;;;;;;4972766;28;20026;-82
2022/06/13 07:45:28;;;;;;;8.75;3.58;;;;;;;;;;4971272;28;20037;-80
2022/06/13 07:47:54;;;;;;;11.02;4.20;;;;;;;;;;4970206;28;20089;-82
2022/06/13 07:50:22;;;;;;;8.13;3.70;;;;;;;;;;4988692;28;20030;-73
2022/06/13 07:52:48;;;;;;;8.00;3.72;;;;;;;;;;4972492;28;20121;-75
2022/06/13 07:55:15;;;;;;;9.20;3.90;;;;;;;;;;4973638;28;20026;-75
2022/06/13 07:57:41;;;;;;;11.10;3.95;;;;;;;;;;4974771;28;20053;-85
2022/06/13 08:00:11;;;;;;;6.75;3.75;;;;;;;;;;4987990;28;20038;-79
2022/06/13 08:02:38;;;;;;;10.57;4.22;;;;;;;;;;4969986;28;20062;-82
2022/06/13 08:05:04;;;;;;;8.65;3.80;;;;;;;;;;4973658;28;20049;-82
2022/06/13 08:07:30;;;;;;;10.48;3.88;;;;;;;;;;4986545;28;20035;-82
2022/06/13 08:09:57;;;;;;;9.70;3.70;;;;;;;;;;4971795;28;20051;-81
2022/06/13 08:12:24;;;;;;;8.32;3.60;;;;;;;;;;4972544;28;20042;-76
2022/06/13 08:14:50;;;;;;;8.40;3.80;;;;;;;;;;4967218;28;20023;-85
2022/06/13 08:17:17;;;;;;;7.22;3.80;;;;;;;;;;4971477;28;20031;-85
2022/06/13 08:19:43;;;;;;;7.38;3.53;;;;;;;;;;4969852;28;20026;-80
2022/06/13 08:22:09;;;;;;;7.78;4.00;;;;;;;;;;4971991;28;20026;-80
2022/06/13 08:24:35;;;;;;;11.07;3.97;;;;;;;;;;4971937;28;20408;-83
2022/06/13 08:27:01;;;;;;;13.60;3.90;;;;;;;;;;4972797;28;20110;-81
2022/06/13 08:29:27;;;;;;;8.77;4.00;;;;;;;;;;4987975;28;20035;-77
2022/06/13 08:31:53;;;;;;;8.98;3.83;;;;;;;;;;4972434;28;20473;-84
2022/06/13 08:34:19;;;;;;;8.32;3.92;;;;;;;;;;4970591;28;20026;-83
2022/06/13 08:36:46;;;;;;;9.77;4.00;;;;;;;;;;4969958;28;20031;-80
2022/06/13 08:39:13;;;;;;;7.78;3.97;;;;;;;;;;4969790;28;20390;-79
2022/06/13 08:41:42;;;;;;;8.55;3.92;;;;;;;;;;4971337;28;20039;-76
2022/06/13 08:44:12;;;;;;;9.50;4.00;;;;;;;;;;4969202;28;20034;-80
2022/06/13 08:46:41;;;;;;;6.72;3.70;;;;;;;;;;4985961;28;20026;-82
2022/06/13 08:49:13;;;;;;;14.55;4.20;;;;;;;;;;4973183;28;20130;-80
2022/06/13 08:51:47;;;;;;;5.82;3.28;;;;;;;;;;4968031;28;20054;-78
2022/06/13 08:54:16;;;;;;;9.20;3.53;;;;;;;;;;4964395;28;20496;-76
2022/06/13 08:56:43;;;;;;;7.35;3.80;;;;;;;;;;4966221;28;20051;-83
2022/06/13 08:59:24;;;;;;;11.63;4.00;;;;;;;;;;4969653;28;20038;-80
2022/06/13 09:02:09;;;;;;;7.80;3.83;;;;;;;;;;4967376;28;20066;-78
2022/06/13 09:04:52;;;;;;;8.88;3.65;;;;;;;;;;4971255;28;20515;-76
2022/06/13 09:07:24;;;;;;;10.10;4.15;;;;;;;;;;4969675;28;20031;-81
2022/06/13 09:10:05;;;;;;;7.55;3.65;;;;;;;;;;4970231;28;20034;-74
2022/06/13 09:12:31;;;;;;;7.07;3.85;;;;;;;;;;4972446;28;20041;-76
2022/06/13 09:15:08;;;;;;;6.43;3.75;;;;;;;;;;4970726;28;20034;-80
2022/06/13 09:17:52;;;;;;;7.15;3.35;;;;;;;;;;4974692;28;20114;-85
2022/06/13 09:20:25;;;;;;;10.20;4.20;;;;;;;;;;4987998;28;20038;-78
2022/06/13 09:22:51;;;;;;;;;;;;;;;;;;4973546;28;20019;-82
2022/06/13 09:25:35;;;;;;;7.32;4.20;;;;;;;;;;4975003;28;20395;-78
2022/06/13 09:28:05;;;;;;;8.23;3.38;;;;;;;;;;4974737;28;20049;-78
2022/06/13 09:30:36;;;;;;;9.07;3.60;;;;;;;;;;4975614;28;20022;-75
2022/06/13 09:33:08;;;;;;;5.55;3.60;;;;;;;;;;4974151;28;20102;-73
2022/06/13 09:35:37;;;;;;;13.27;3.60;;;;;;;;;;4973215;28;20508;-73
2022/06/13 09:38:13;;;;;;;5.03;2.90;;;;;;;;;;4986428;28;20061;-73
2022/06/13 09:40:56;;;;;;;5.53;3.28;;;;;;;;;;5016069;28;20022;-73
2022/06/13 09:43:46;;;;;;;6.75;3.08;;;;;;;;;;5023831;28;20595;-73
2022/06/13 09:46:22;;;;;;;6.55;3.25;;;;;;;;;;4917331;29;20047;-73
2022/06/13 09:49:06;;;;;;;8.52;3.10;;;;;;;;;;4916891;29;20179;-72
2022/06/13 09:51:38;;;;;;;6.30;3.00;;;;;;;;;;4917018;29;20103;-73
2022/06/13 09:54:10;;;;;;;6.20;3.20;;;;;;;;;;4916797;29;20103;-73
2022/06/13 09:56:36;;;;;;;10.35;3.20;;;;;;;;;;4918054;29;20036;-73
2022/06/13 09:59:02;;;;;;;6.50;3.20;;;;;;;;;;4916635;29;20398;-73
2022/06/13 10:01:31;;;;;;;5.88;2.95;;;;;;;;;;4916806;29;20024;-73
2022/06/13 10:04:05;;;;;;;9.00;3.40;;;;;;;;;;4915065;29;20084;-72
2022/06/13 10:06:48;;;;;;;13.13;2.90;;;;;;;;;;4916510;29;20136;-73
2022/06/13 10:09:14;;;;;;;;;;;;;;;;;;4919215;29;20040;-74
2022/06/13 10:11:53;;;;;;;5.70;3.33;;;;;;;;;;4916433;29;19911;-73
2022/06/13 10:14:20;;;;;;;6.90;3.22;;;;;;;;;;4916663;29;20633;-73
2022/06/13 10:17:04;;;;;;;6.18;2.67;;;;;;;;;;4916767;29;20156;-73
2022/06/13 10:19:41;;;;;;;3.83;2.80;;;;;;;;;;4916126;29;20035;-73
2022/06/13 10:22:18;;;;;;;6.85;3.60;;;;;;;;;;4918163;28;20040;-73
2022/06/13 10:25:02;;;;;;;5.88;2.80;;;;;;;;;;5013752;28;20037;-74
2022/06/13 10:27:41;;;;;;;4.68;2.70;;;;;;;;;;4996097;28;20037;-73
2022/06/13 10:30:25;;;;;;;5.80;2.60;;;;;;;;;;5014750;28;20076;-73
2022/06/13 10:33:10;;;;;;;7.40;2.90;;;;;;;;;;5014815;28;20506;-73
2022/06/13 10:35:39;;;;;;;3.60;2.80;;;;;;;;;;5014790;28;20030;-73
2022/06/13 10:38:11;;;;;;;3.53;2.50;;;;;;;;;;5016457;28;20503;-73
2022/06/13 10:40:37;;;;;;;4.20;2.60;;;;;;;;;;5014591;28;20042;-73
2022/06/13 10:43:04;;;;;;;7.38;2.83;;;;;;;;;;5014396;28;20061;-73
2022/06/13 10:45:30;;;;;;;6.40;3.30;;;;;;;;;;5014471;28;20379;-72
2022/06/13 10:48:01;;;;;;;5.60;3.03;;;;;;;;;;5014822;28;20036;-73
2022/06/13 10:50:45;;;;;;;6.45;2.90;;;;;;;;;;5014479;28;20032;-73
2022/06/13 10:53:18;;;;;;;6.50;2.95;;;;;;;;;;5014605;28;20030;-72
2022/06/13 10:55:45;;;;;;;7.43;2.97;;;;;;;;;;5014424;28;20444;-73
2022/06/13 10:58:34;;;;;;;6.13;2.95;;;;;;;;;;5014509;28;20088;-72
2022/06/13 11:01:03;;;;;;;6.80;2.97;;;;;;;;;;4934425;29;20044;-73
2022/06/13 11:03:29;;;;;;;8.48;3.40;;;;;;;;;;4934474;29;20039;-73
2022/06/13 11:05:59;;;;;;;7.63;3.05;;;;;;;;;;4934591;29;20070;-73
2022/06/13 11:08:27;;;;;;;6.50;3.13;;;;;;;;;;4934261;29;20482;-73
2022/06/13 11:10:58;;;;;;;8.73;3.45;;;;;;;;;;4934449;29;20518;-73
2022/06/13 11:13:32;;;;;;;5.55;2.88;;;;;;;;;;4934322;29;20122;-72
2022/06/13 11:24:22;;;;;;;6.95;3.00;;;;;;;;;;4933934;29;20042;-75
2022/06/13 11:29:33;;;;;;;7.05;3.15;;;;;;;;;;4934480;29;20038;-74
2022/06/13 11:32:00;;;;;;;6.30;3.30;;;;;;;;;;4934185;29;20040;-74
2022/06/13 11:34:29;;;;;;;13.15;3.67;;;;;;;;;;4933822;29;20126;-75
2022/06/13 11:37:04;;;;;;;34.00;6.80;;;;;;;;;;4938775;28;20498;-75
2022/06/13 11:39:35;;;;;;;46.63;7.68;;;;;;;;;;4994782;28;20118;-75
2022/06/13 11:42:01;;;;;;;16.50;4.15;;;;;;;;;;5013860;28;20109;-75
2022/06/13 11:44:28;;;;;;;7.22;3.72;;;;;;;;;;5013065;28;20041;-75
2022/06/13 11:46:54;;;;;;;19.33;5.10;;;;;;;;;;5013634;28;20033;-76
2022/06/13 11:49:20;;;;;;;17.88;4.20;;;;;;;;;;5013255;28;20104;-75
2022/06/13 11:51:49;;;;;;;59.22;8.93;;;;;;;;;;5011349;28;20365;-70
2022/06/13 11:54:25;;;;;;;110.03;12.70;;;;;;;;;;5011436;28;20111;-72
2022/06/13 11:57:09;;;;;;;34.35;5.45;;;;;;;;;;5004423;28;20054;-81
2022/06/13 11:59:43;;;;;;;29.77;5.05;;;;;;;;;;5016249;28;20022;-86
2022/06/13 12:02:21;;;;;;;23.00;5.22;;;;;;;;;;5014838;28;20030;-72
2022/06/13 12:04:48;;;;;;;24.58;4.50;;;;;;;;;;5010139;28;20081;-82
2022/06/13 12:07:22;;;;;;;9.85;3.70;;;;;;;;;;4993283;28;20030;-72
2022/06/13 12:09:56;;;;;;;7.20;3.25;;;;;;;;;;5010996;28;20041;-71
2022/06/13 12:12:23;;;;;;;9.55;3.58;;;;;;;;;;5010040;28;20037;-74
2022/06/13 12:14:49;;;;;;;12.68;3.38;;;;;;;;;;5010947;28;20357;-75
2022/06/13 12:17:19;;;;;;;6.68;3.55;;;;;;;;;;5010002;28;20116;-73
2022/06/13 12:20:04;;;;;;;8.23;3.28;;;;;;;;;;5011238;28;20607;-74
2022/06/13 12:22:41;;;;;;;3.25;2.83;;;;;;;;;;5003526;28;20030;-74
2022/06/13 12:25:15;;;;;;;8.52;3.55;;;;;;;;;;5001461;28;20069;-71
2022/06/13 12:27:52;;;;;;;8.95;3.60;;;;;;;;;;5010059;28;20391;-72
2022/06/13 12:30:21;;;;;;;6.65;3.40;;;;;;;;;;5007808;28;20511;-72
2022/06/13 12:32:52;;;;;;;13.52;4.07;;;;;;;;;;5011204;28;20045;-72
2022/06/13 12:35:28;;;;;;;131.75;13.88;;;;;;;;;;5012140;28;20037;-73
2022/06/13 12:37:55;;;;;;;140.93;16.27;;;;;;;;;;5010071;28;20492;-74
2022/06/13 12:40:41;;;;;;;96.00;12.63;;;;;;;;;;5005330;28;20026;-74
2022/06/13 12:43:16;;;;;;;36.58;6.43;;;;;;;;;;4994258;28;20038;-78
2022/06/13 12:46:03;;;;;;;41.88;8.68;;;;;;;;;;5009066;28;20492;-77
2022/06/13 12:48:54;;;;;;;119.82;13.95;;;;;;;;;;4933707;29;20036;-74
2022/06/13 12:51:49;;;;;;;34.40;7.60;;;;;;;;;;4931628;29;20047;-74
2022/06/13 12:54:35;;;;;;;127.10;15.30;;;;;;;;;;4920519;29;20126;-72
2022/06/13 12:57:07;;;;;;;70.93;8.88;;;;;;;;;;4927993;29;20043;-80
2022/06/13 12:59:35;;;;;;;81.18;12.63;;;;;;;;;;4934178;29;20051;-80
2022/06/13 13:02:10;;;;;;;22.60;5.68;;;;;;;;;;4941229;29;20418;-77
2022/06/13 13:04:50;;;;;;;63.28;10.25;;;;;;;;;;4932714;29;20525;-75
2022/06/13 13:07:26;;;;;;;42.25;7.13;;;;;;;;;;4930875;29;20115;-74
2022/06/13 13:10:03;;;;;;;26.90;6.55;;;;;;;;;;4932424;29;20950;-75
2022/06/13 13:12:35;;;;;;;25.83;5.03;;;;;;;;;;4917223;29;20090;-77
2022/06/13 13:15:18;;;;;;;62.00;9.55;;;;;;;;;;4933794;29;20071;-72
2022/06/13 13:17:47;;;;;;;63.80;9.10;;;;;;;;;;4931301;29;20421;-75
2022/06/13 13:20:13;;;;;;;18.02;5.03;;;;;;;;;;4934459;29;20411;-72
2022/06/13 13:22:41;;;;;;;30.30;5.78;;;;;;;;;;4933647;29;20043;-81
2022/06/13 13:25:33;;;;;;;14.82;4.85;;;;;;;;;;4940879;28;20038;-74
2022/06/13 13:28:04;;;;;;;103.40;12.48;;;;;;;;;;5006932;28;20559;-73
2022/06/13 13:30:44;;;;;;;121.28;13.77;;;;;;;;;;5010312;28;20022;-75
2022/06/13 13:33:16;;;;;;;106.72;13.73;;;;;;;;;;5007667;28;20057;-73
2022/06/13 13:35:52;;;;;;;163.27;17.97;;;;;;;;;;5010460;28;20030;-72
2022/06/13 13:38:26;;;;;;;69.13;9.15;;;;;;;;;;5009658;28;20057;-74
2022/06/13 13:40:58;;;;;;;122.82;13.65;;;;;;;;;;5009505;28;20054;-71
2022/06/13 13:43:30;;;;;;;64.63;8.13;;;;;;;;;;5009726;28;20369;-72
2022/06/13 13:45:59;;;;;;;154.50;17.30;;;;;;;;;;5008986;28;20034;-76
2022/06/13 13:48:32;;;;;;;281.45;30.73;;;;;;;;;;5007680;28;20506;-79
2022/06/13 13:50:58;;;;;;;;;;;;;;;;;;5011736;28;20034;-85
2022/06/13 13:53:27;;;;;;;169.27;20.38;;;;;;;;;;5005178;28;20389;-77
2022/06/13 13:55:58;;;;;;;57.00;8.63;;;;;;;;;;5006985;28;20032;-78
2022/06/13 13:58:28;;;;;;;135.93;16.85;;;;;;;;;;5000628;28;20084;-74
2022/06/13 14:00:54;;;;;;;195.10;21.35;;;;;;;;;;5009035;28;20040;-73
2022/06/13 14:03:26;;;;;;;133.57;16.63;;;;;;;;;;5011443;28;20030;-74
2022/06/13 14:06:10;;;;;;;76.85;11.60;;;;;;;;;;5014433;28;20048;-75
2022/06/13 14:08:37;;;;;;;80.07;11.70;;;;;;;;;;5010295;28;20033;-72
2022/06/13 14:11:04;;;;;;;36.05;6.97;;;;;;;;;;5011965;28;20029;-77
2022/06/13 14:13:32;;;;;;;27.92;5.45;;;;;;;;;;5011841;28;20042;-73
2022/06/13 14:16:04;;;;;;;49.78;7.80;;;;;;;;;;5013879;28;20048;-72
2022/06/13 14:18:38;;;;;;;16.27;4.73;;;;;;;;;;5010513;28;20026;-73
2022/06/13 14:21:12;;;;;;;46.00;6.88;;;;;;;;;;5014251;28;20602;-72
2022/06/13 14:23:49;;;;;;;20.83;5.20;;;;;;;;;;5014311;28;20026;-73
2022/06/13 14:26:22;;;;;;;16.05;4.80;;;;;;;;;;5014165;28;20034;-73
2022/06/13 14:28:53;;;;;;;17.80;4.55;;;;;;;;;;5014669;28;20053;-72
2022/06/13 14:31:19;;;;;;;18.90;5.30;;;;;;;;;;5014596;28;20097;-72
2022/06/13 14:36:50;;;;;;;78.18;10.65;;;;;;;;;;5012162;28;20072;-73
2022/06/13 14:39:30;;;;;;;59.00;8.20;;;;;;;;;;5014042;28;20500;-73
2022/06/13 14:42:21;;;;;;;35.60;7.35;;;;;;;;;;5012633;28;20042;-72
2022/06/13 14:45:06;;;;;;;51.00;9.43;;;;;;;;;;4958303;28;20125;-72
2022/06/13 14:47:51;;;;;;;139.68;15.13;;;;;;;;;;4965830;28;20046;-72
2022/06/13 14:50:35;;;;;;;165.55;21.08;;;;;;;;;;4971081;28;20098;-73
2022/06/13 14:53:22;;;;;;;159.93;19.30;;;;;;;;;;4972756;28;20547;-73
2022/06/13 14:56:07;;;;;;;114.97;12.55;;;;;;;;;;4896299;29;20602;-73
2022/06/13 14:58:48;;;;;;;24.30;5.45;;;;;;;;;;4892017;29;20128;-74
2022/06/13 15:01:25;;;;;;;17.90;4.53;;;;;;;;;;4894465;29;20044;-73
2022/06/13 15:04:00;;;;;;;12.48;4.57;;;;;;;;;;4893993;29;20414;-75
2022/06/13 15:06:28;;;;;;;19.80;5.28;;;;;;;;;;4893190;29;20049;-75
2022/06/13 15:09:12;;;;;;;14.13;4.25;;;;;;;;;;4894713;29;20720;-73
2022/06/13 15:11:40;;;;;;;12.18;3.83;;;;;;;;;;4891583;29;20048;-71
2022/06/13 15:14:10;;;;;;;7.57;3.50;;;;;;;;;;4894228;29;20052;-71
2022/06/13 15:16:36;;;;;;;9.57;3.70;;;;;;;;;;4895169;29;20578;-72
2022/06/13 15:19:04;;;;;;;11.93;3.75;;;;;;;;;;4891152;29;20087;-73
2022/06/13 15:21:33;;;;;;;21.48;12.07;;;;;;;;;;4899320;29;20040;-74
2022/06/13 15:24:00;;;;;;;9.00;6.00;;;;;;;;;;4914455;29;20040;-74
2022/06/13 15:26:28;;;;;;;8.82;4.43;;;;;;;;;;4930486;29;20447;-72
2022/06/13 15:29:11;;;;;;;6.93;3.78;;;;;;;;;;4912316;29;20028;-74
2022/06/13 15:31:39;;;;;;;4.60;3.45;;;;;;;;;;4926147;29;20049;-74
2022/06/13 15:34:13;;;;;;;7.40;3.92;;;;;;;;;;5010288;28;20041;-77
2022/06/13 15:36:40;;;;;;;5.90;3.20;;;;;;;;;;5011732;28;20080;-71